Time;durP1;ratioP1;P1;durP2;ratioP2;P2;SDS_P1;SDS_P2;PMS_P1;PMS_P2;Temp;Humidity;BMP_temperature;BMP_pressure;BME280_temperature;BME280_humidity;BME280_pressure;Samples;Min_cycle;Max_cycle;Signal;HPM_P1;HPM_P2
2022/09/30 00:00:03;;;;;;;16.15;6.18;;;15.70;67.20;;;;;;5082443;28;20074;-77
2022/09/30 00:02:28;;;;;;;17.40;5.63;;;15.70;67.20;;;;;;5081802;28;20433;-77
2022/09/30 00:04:54;;;;;;;11.27;3.28;;;15.70;67.30;;;;;;5083182;28;20024;-77
2022/09/30 00:07:20;;;;;;;10.75;5.20;;;15.70;67.20;;;;;;5082190;28;20024;-76
2022/09/30 00:09:46;;;;;;;6.85;4.25;;;15.70;67.10;;;;;;5081537;28;20103;-76
2022/09/30 00:12:12;;;;;;;6.90;3.38;;;15.70;67.00;;;;;;5081932;28;20495;-77
2022/09/30 00:14:38;;;;;;;3.88;2.80;;;15.70;66.90;;;;;;5085895;28;20016;-78
2022/09/30 00:17:04;;;;;;;3.47;2.53;;;15.70;66.90;;;;;;5083520;28;20393;-79
2022/09/30 00:19:30;;;;;;;4.47;2.45;;;15.70;66.90;;;;;;5083573;28;20020;-76
2022/09/30 00:21:56;;;;;;;2.85;2.55;;;15.70;67.00;;;;;;5082285;28;20210;-77
2022/09/30 00:24:22;;;;;;;4.90;2.80;;;15.80;67.10;;;;;;5079161;28;20024;-77
2022/09/30 00:26:47;;;;;;;4.15;2.65;;;15.80;67.20;;;;;;5084271;28;20473;-77
2022/09/30 00:29:13;;;;;;;2.33;2.00;;;15.70;67.10;;;;;;5082021;28;20028;-76
2022/09/30 00:31:39;;;;;;;3.17;2.13;;;15.70;67.10;;;;;;5075319;28;20024;-76
2022/09/30 00:34:05;;;;;;;3.25;2.20;;;15.70;67.10;;;;;;5083532;28;20024;-78
2022/09/30 00:36:42;;;;;;;2.75;2.35;;;15.70;67.10;;;;;;5092835;28;20031;-76
2022/09/30 00:39:11;;;;;;;4.28;2.60;;;15.70;67.10;;;;;;5091599;28;20020;-76
2022/09/30 00:41:38;;;;;;;3.80;2.55;;;15.80;67.10;;;;;;5092677;28;20086;-76
2022/09/30 00:44:38;;;;;;;4.43;2.40;;;15.80;67.30;;;;;;5092735;28;20081;-75
2022/09/30 00:47:05;;;;;;;3.15;2.58;;;15.70;67.20;;;;;;5092521;28;20070;-76
2022/09/30 00:49:32;;;;;;;4.63;2.50;;;15.70;67.10;;;;;;5091276;28;20024;-77
2022/09/30 00:51:59;;;;;;;3.60;2.38;;;15.80;67.20;;;;;;5092395;28;20465;-77
2022/09/30 00:54:29;;;;;;;8.82;2.45;;;15.70;67.10;;;;;;5092407;28;20028;-77
2022/09/30 00:57:02;;;;;;;3.95;2.30;;;15.80;67.30;;;;;;5090836;28;20024;-78
2022/09/30 00:59:38;;;;;;;2.65;2.30;;;15.70;67.30;;;;;;5107974;28;20028;-76
2022/09/30 01:02:05;;;;;;;3.88;2.60;;;15.70;67.20;;;;;;5092012;28;20389;-76
2022/09/30 01:04:33;;;;;;;4.10;2.83;;;15.70;67.20;;;;;;5091525;28;20522;-77
2022/09/30 01:07:05;;;;;;;8.95;3.05;;;15.70;67.20;;;;;;5092007;28;20035;-77
2022/09/30 01:09:40;;;;;;;3.85;2.72;;;15.70;67.20;;;;;;5107811;28;20024;-78
2022/09/30 01:12:11;;;;;;;2.88;2.38;;;15.70;67.10;;;;;;5108757;28;20081;-75
2022/09/30 01:14:39;;;;;;;2.72;1.98;;;15.70;67.10;;;;;;5093028;28;20027;-75
2022/09/30 01:17:55;;;;;;;3.38;2.28;;;15.70;67.10;;;;;;5092958;28;20023;-78
2022/09/30 01:20:53;;;;;;;4.25;2.20;;;15.70;67.00;;;;;;5047633;28;20028;-75
2022/09/30 01:23:37;;;;;;;3.00;2.42;;;15.80;67.00;;;;;;5092428;28;20489;-76
2022/09/30 01:26:23;;;;;;;2.90;2.22;;;15.80;67.00;;;;;;5092645;28;20032;-75
2022/09/30 01:29:06;;;;;;;7.13;2.30;;;15.80;67.10;;;;;;5092759;28;20061;-75
2022/09/30 01:31:48;;;;;;;7.03;2.60;;;15.80;66.90;;;;;;5092834;28;20091;-76
2022/09/30 01:34:36;;;;;;;3.08;2.28;;;15.90;67.10;;;;;;5092771;28;20132;-75
2022/09/30 01:37:19;;;;;;;2.50;2.30;;;15.90;67.00;;;;;;5092700;28;20091;-75
2022/09/30 01:40:12;;;;;;;3.08;2.40;;;15.90;67.00;;;;;;5092863;28;20420;-75
2022/09/30 01:42:48;;;;;;;4.53;2.65;;;15.90;66.80;;;;;;5092710;28;20031;-77
2022/09/30 01:45:28;;;;;;;3.75;2.55;;;15.90;66.80;;;;;;5091197;28;20024;-76
2022/09/30 01:48:02;;;;;;;3.50;2.90;;;15.90;66.80;;;;;;5092658;28;20020;-77
2022/09/30 01:50:49;;;;;;;6.57;4.05;;;15.90;66.80;;;;;;5092536;28;20389;-74
2022/09/30 01:53:35;;;;;;;8.07;2.80;;;15.90;66.80;;;;;;5092690;28;20024;-76
2022/09/30 01:56:11;;;;;;;5.53;3.10;;;15.90;66.80;;;;;;5092391;28;20058;-77
2022/09/30 01:59:05;;;;;;;5.78;3.03;;;15.90;66.90;;;;;;5091213;28;20145;-77
2022/09/30 02:02:01;;;;;;;4.43;2.72;;;15.90;66.80;;;;;;5092553;28;20404;-76
2022/09/30 02:04:42;;;;;;;4.20;2.53;;;15.90;66.80;;;;;;5091591;28;20398;-77
2022/09/30 02:07:16;;;;;;;4.45;2.55;;;15.90;66.70;;;;;;5091369;28;20106;-76
2022/09/30 02:10:01;;;;;;;3.67;2.85;;;15.90;66.80;;;;;;5092362;28;20153;-75
2022/09/30 02:12:32;;;;;;;4.68;2.90;;;15.90;66.90;;;;;;5092432;28;20024;-76
2022/09/30 02:15:13;;;;;;;13.13;3.20;;;15.90;66.90;;;;;;5094450;28;20016;-77
2022/09/30 02:18:01;;;;;;;4.28;3.25;;;15.90;66.90;;;;;;5096195;28;20016;-76
2022/09/30 02:20:34;;;;;;;5.75;3.33;;;15.90;66.90;;;;;;5096169;28;20485;-77
2022/09/30 02:23:11;;;;;;;3.88;3.40;;;15.90;66.80;;;;;;5094853;28;20498;-76
2022/09/30 02:25:43;;;;;;;4.57;3.90;;;15.90;66.80;;;;;;5095744;28;20027;-75
2022/09/30 02:28:13;;;;;;;7.60;3.60;;;15.90;66.90;;;;;;5096015;28;20103;-76
2022/09/30 02:30:44;;;;;;;4.28;3.35;;;15.90;66.90;;;;;;5111900;28;20078;-75
2022/09/30 02:33:14;;;;;;;11.85;3.72;;;15.80;66.80;;;;;;5111596;28;20028;-74
2022/09/30 02:35:47;;;;;;;6.72;3.33;;;15.80;66.80;;;;;;5096233;28;20046;-77
2022/09/30 02:38:25;;;;;;;3.97;3.20;;;15.80;66.90;;;;;;5095729;28;20486;-75
2022/09/30 02:41:01;;;;;;;4.70;3.50;;;15.80;67.00;;;;;;5095763;28;20547;-77
2022/09/30 02:43:28;;;;;;;4.45;3.40;;;15.80;67.10;;;;;;5094445;28;20024;-76
2022/09/30 02:46:03;;;;;;;5.75;3.53;;;15.80;67.20;;;;;;5111215;28;20044;-78
2022/09/30 02:48:46;;;;;;;3.95;3.42;;;15.80;67.30;;;;;;5095423;28;20028;-77
2022/09/30 02:51:35;;;;;;;5.78;3.45;;;15.80;67.30;;;;;;5095597;28;20021;-77
2022/09/30 02:54:13;;;;;;;3.38;3.08;;;15.80;67.40;;;;;;5095795;28;20492;-75
2022/09/30 02:56:54;;;;;;;4.78;3.60;;;15.80;67.40;;;;;;5093957;28;20075;-75
2022/09/30 02:59:21;;;;;;;6.78;4.65;;;15.80;67.40;;;;;;5094132;28;20546;-75
2022/09/30 03:01:47;;;;;;;7.63;3.75;;;15.80;67.30;;;;;;5095314;28;20469;-75
2022/09/30 03:04:19;;;;;;;4.57;3.42;;;15.80;67.40;;;;;;5095366;28;20024;-75
2022/09/30 03:06:45;;;;;;;6.38;3.83;;;15.80;67.40;;;;;;5095359;28;20441;-76
2022/09/30 03:09:11;;;;;;;6.45;3.38;;;15.70;68.00;;;;;;5095160;28;20099;-76
2022/09/30 03:11:37;;;;;;;7.20;3.88;;;15.80;67.20;;;;;;5095129;28;20020;-76
2022/09/30 03:14:06;;;;;;;4.63;4.07;;;15.70;67.10;;;;;;5095125;28;20104;-76
2022/09/30 03:16:37;;;;;;;7.22;4.25;;;15.70;67.20;;;;;;5095088;28;20028;-75
2022/09/30 03:19:12;;;;;;;6.07;4.43;;;15.70;67.20;;;;;;5093668;28;20024;-75
2022/09/30 03:21:59;;;;;;;5.28;3.85;;;15.70;67.20;;;;;;5093656;28;20054;-76
2022/09/30 03:25:08;;;;;;;8.73;4.10;;;15.70;67.30;;;;;;5094939;28;20473;-75
2022/09/30 03:27:50;;;;;;;6.32;4.75;;;15.70;67.30;;;;;;5079950;28;20040;-76
2022/09/30 03:30:20;;;;;;;5.03;3.88;;;15.70;67.30;;;;;;5110422;28;20024;-77
2022/09/30 03:33:00;;;;;;;5.32;3.70;;;15.70;67.30;;;;;;5110359;28;20016;-76
2022/09/30 03:35:53;;;;;;;4.88;3.97;;;15.70;67.30;;;;;;5094699;28;20027;-78
2022/09/30 03:38:27;;;;;;;7.60;4.72;;;15.70;67.40;;;;;;5094589;28;20032;-76
2022/09/30 03:41:11;;;;;;;10.77;4.55;;;15.70;67.30;;;;;;5094628;28;20020;-76
2022/09/30 03:44:04;;;;;;;5.30;4.47;;;15.70;67.30;;;;;;5094547;28;20020;-76
2022/09/30 03:46:35;;;;;;;5.68;4.63;;;15.70;67.30;;;;;;5109995;28;20048;-77
2022/09/30 03:49:05;;;;;;;5.18;4.68;;;15.70;67.30;;;;;;5074033;28;20038;-77
2022/09/30 03:51:34;;;;;;;7.68;6.10;;;15.70;67.20;;;;;;5072858;28;20078;-75
2022/09/30 03:54:00;;;;;;;11.70;5.75;;;15.70;67.20;;;;;;5074015;28;20048;-76
2022/09/30 03:56:30;;;;;;;6.75;5.35;;;15.70;67.30;;;;;;5083253;28;20067;-77
2022/09/30 03:58:57;;;;;;;10.57;5.72;;;15.70;67.40;;;;;;5093412;28;20028;-77
2022/09/30 04:01:24;;;;;;;7.15;5.63;;;15.70;67.50;;;;;;5094130;28;20028;-77
2022/09/30 04:03:51;;;;;;;5.88;5.13;;;15.70;67.60;;;;;;5094118;28;20032;-76
2022/09/30 04:06:19;;;;;;;6.65;5.95;;;15.70;67.70;;;;;;5109631;28;20100;-77
2022/09/30 04:08:45;;;;;;;6.80;6.10;;;15.70;67.80;;;;;;5093913;28;20024;-75
2022/09/30 04:11:11;;;;;;;8.95;6.35;;;15.70;67.80;;;;;;5092703;28;20069;-76
2022/09/30 04:13:38;;;;;;;6.90;6.20;;;15.70;67.80;;;;;;5093933;28;20103;-75
2022/09/30 04:16:04;;;;;;;8.07;6.32;;;15.70;67.80;;;;;;5093926;28;20362;-75
2022/09/30 04:18:31;;;;;;;9.95;6.22;;;15.70;67.70;;;;;;5093839;28;20462;-77
2022/09/30 04:20:58;;;;;;;11.18;6.90;;;15.70;67.80;;;;;;5093846;28;20350;-75
2022/09/30 04:23:24;;;;;;;9.57;6.20;;;15.70;67.80;;;;;;5093750;28;20024;-76
2022/09/30 04:25:56;;;;;;;8.63;6.63;;;15.70;67.70;;;;;;5093686;28;20024;-75
2022/09/30 04:28:22;;;;;;;9.63;6.78;;;15.70;67.80;;;;;;5092022;28;20389;-76
2022/09/30 04:30:48;;;;;;;7.72;6.57;;;15.70;67.80;;;;;;5093550;28;20016;-76
2022/09/30 04:33:13;;;;;;;7.60;6.53;;;15.70;67.80;;;;;;5093590;28;20074;-77
2022/09/30 04:35:39;;;;;;;9.50;6.60;;;15.70;67.80;;;;;;5093519;28;20095;-75
2022/09/30 04:38:06;;;;;;;9.50;7.15;;;15.70;67.90;;;;;;5093319;28;20036;-76
2022/09/30 04:40:41;;;;;;;7.10;6.18;;;15.70;68.10;;;;;;5093474;28;20438;-75
2022/09/30 04:43:06;;;;;;;7.97;5.68;;;15.70;68.10;;;;;;5091926;28;20024;-75
2022/09/30 04:45:32;;;;;;;8.00;5.63;;;15.70;68.00;;;;;;5092963;28;20493;-77
2022/09/30 04:47:58;;;;;;;6.10;5.38;;;15.70;68.00;;;;;;5093225;28;20016;-76
2022/09/30 04:50:24;;;;;;;7.68;6.28;;;15.70;67.90;;;;;;5091891;28;20032;-77
2022/09/30 04:52:50;;;;;;;7.10;5.57;;;15.70;67.90;;;;;;5093039;28;20059;-76
2022/09/30 04:55:16;;;;;;;6.07;5.47;;;15.70;68.00;;;;;;5093084;28;20469;-77
2022/09/30 04:57:44;;;;;;;5.97;5.35;;;15.70;67.80;;;;;;5092801;28;20027;-75
2022/09/30 05:00:11;;;;;;;6.53;4.68;;;15.70;67.80;;;;;;5093057;28;20480;-75
2022/09/30 05:02:36;;;;;;;8.93;5.07;;;15.70;67.80;;;;;;5091827;28;20020;-74
2022/09/30 05:05:03;;;;;;;7.15;5.60;;;15.70;68.00;;;;;;5093038;28;20149;-77
2022/09/30 05:07:32;;;;;;;6.03;4.25;;;15.70;68.00;;;;;;5090815;28;20150;-76
2022/09/30 05:09:58;;;;;;;9.25;4.32;;;15.70;68.00;;;;;;5091806;28;20099;-76
2022/09/30 05:12:24;;;;;;;5.28;3.92;;;15.70;68.10;;;;;;5092945;28;20513;-77
2022/09/30 05:14:50;;;;;;;4.93;3.85;;;15.70;68.10;;;;;;5092881;28;20146;-77
2022/09/30 05:17:16;;;;;;;5.85;4.13;;;15.70;68.00;;;;;;5092604;28;20110;-77
2022/09/30 05:19:42;;;;;;;6.25;4.25;;;15.70;68.00;;;;;;5092866;28;20026;-75
2022/09/30 05:22:08;;;;;;;4.45;3.30;;;15.70;68.00;;;;;;5092589;28;20412;-76
2022/09/30 05:24:34;;;;;;;3.67;3.28;;;15.70;68.00;;;;;;5092547;28;20028;-75
2022/09/30 05:27:01;;;;;;;5.15;3.03;;;15.70;68.00;;;;;;5092515;28;20416;-76
2022/09/30 05:29:27;;;;;;;7.03;3.22;;;15.70;67.80;;;;;;5092416;28;20028;-77
2022/09/30 05:31:53;;;;;;;4.43;3.30;;;15.70;67.80;;;;;;5086491;28;20039;-77
2022/09/30 05:34:20;;;;;;;4.75;2.90;;;15.70;67.70;;;;;;5092778;28;20035;-77
2022/09/30 05:36:46;;;;;;;2.47;2.15;;;15.70;67.80;;;;;;5091327;28;20024;-77
2022/09/30 05:39:11;;;;;;;2.60;2.20;;;15.70;67.80;;;;;;5091453;28;20370;-77
2022/09/30 05:41:37;;;;;;;7.53;2.85;;;15.80;67.80;;;;;;5092717;28;20024;-77
2022/09/30 05:44:04;;;;;;;5.45;2.95;;;15.80;67.60;;;;;;5092657;28;20024;-76
2022/09/30 05:46:29;;;;;;;4.95;2.90;;;15.80;67.40;;;;;;5091919;28;20123;-76
2022/09/30 05:48:56;;;;;;;3.08;2.70;;;15.80;67.40;;;;;;5092054;28;20475;-76
2022/09/30 05:51:22;;;;;;;4.97;2.83;;;15.80;67.40;;;;;;5090850;28;20381;-78
2022/09/30 05:53:48;;;;;;;3.20;2.75;;;15.90;67.40;;;;;;5087101;28;20024;-77
2022/09/30 05:56:13;;;;;;;4.97;3.15;;;15.90;67.40;;;;;;5088867;28;20028;-77
2022/09/30 05:58:40;;;;;;;7.80;3.42;;;15.90;67.50;;;;;;5085394;28;20028;-77
2022/09/30 06:01:15;;;;;;;4.95;3.72;;;15.90;67.50;;;;;;5086030;28;20029;-74
2022/09/30 06:03:43;;;;;;;10.88;3.67;;;15.90;67.30;;;;;;5084900;28;20473;-77
2022/09/30 06:06:10;;;;;;;6.03;3.78;;;15.90;67.40;;;;;;5083656;28;20025;-77
2022/09/30 06:08:36;;;;;;;10.38;4.40;;;15.90;67.40;;;;;;5085529;28;20017;-76
2022/09/30 06:11:10;;;;;;;3.95;3.40;;;16.00;67.50;;;;;;5084777;28;20394;-77
2022/09/30 06:13:37;;;;;;;7.18;3.45;;;16.00;67.70;;;;;;5084331;28;20366;-76
2022/09/30 06:16:04;;;;;;;3.53;3.20;;;16.00;67.70;;;;;;5087567;28;20030;-78
2022/09/30 06:18:30;;;;;;;4.53;3.05;;;16.10;67.70;;;;;;5074888;28;20028;-77
2022/09/30 06:20:58;;;;;;;6.00;2.97;;;16.10;67.60;;;;;;5074754;28;20024;-77
2022/09/30 06:23:25;;;;;;;5.70;3.17;;;16.10;67.50;;;;;;5076276;28;20029;-78
2022/09/30 06:25:54;;;;;;;3.50;2.80;;;16.10;67.20;;;;;;5074935;28;20027;-77
2022/09/30 06:28:21;;;;;;;3.75;3.03;;;16.20;67.20;;;;;;5083745;28;20059;-76
2022/09/30 06:30:47;;;;;;;10.65;3.92;;;16.20;67.00;;;;;;5095969;28;20496;-77
2022/09/30 06:33:14;;;;;;;8.98;4.57;;;16.20;66.80;;;;;;5094933;28;20020;-77
2022/09/30 06:35:41;;;;;;;6.32;4.72;;;16.30;66.70;;;;;;5096322;28;20477;-76
2022/09/30 06:38:10;;;;;;;6.32;4.50;;;16.30;66.70;;;;;;5095678;28;20020;-75
2022/09/30 06:40:37;;;;;;;7.85;4.32;;;16.30;66.60;;;;;;5096247;28;20030;-75
2022/09/30 06:43:04;;;;;;;4.88;3.40;;;16.30;66.50;;;;;;5096044;28;20754;-76
2022/09/30 06:45:31;;;;;;;6.13;3.53;;;16.30;66.50;;;;;;5095823;28;20071;-76
2022/09/30 06:47:59;;;;;;;5.28;2.80;;;16.40;66.50;;;;;;5095942;28;20020;-76
2022/09/30 06:50:25;;;;;;;3.95;2.80;;;16.40;66.30;;;;;;5094601;28;20381;-77
2022/09/30 06:52:56;;;;;;;3.42;2.67;;;16.40;66.20;;;;;;5095837;28;20020;-76
2022/09/30 06:55:23;;;;;;;4.55;2.83;;;16.50;66.00;;;;;;5095045;28;20047;-75
2022/09/30 06:57:49;;;;;;;5.85;3.00;;;16.50;65.90;;;;;;5095443;28;20024;-76
2022/09/30 07:00:15;;;;;;;3.47;3.00;;;16.60;65.90;;;;;;5094924;28;20021;-78
2022/09/30 07:02:42;;;;;;;4.30;2.63;;;16.60;65.60;;;;;;5094948;28;20024;-75
2022/09/30 07:05:08;;;;;;;2.65;2.40;;;16.60;65.60;;;;;;5095468;28;20470;-78
2022/09/30 07:07:35;;;;;;;4.53;2.78;;;16.70;65.70;;;;;;5094812;28;20027;-76
2022/09/30 07:10:03;;;;;;;3.58;2.50;;;16.70;65.90;;;;;;5093937;28;20032;-78
2022/09/30 07:12:29;;;;;;;5.22;3.05;;;16.80;65.70;;;;;;5094087;28;20020;-77
2022/09/30 07:14:58;;;;;;;6.68;2.97;;;16.80;65.30;;;;;;5095347;28;20051;-76
2022/09/30 07:17:25;;;;;;;4.93;3.13;;;16.80;65.20;;;;;;5094105;28;20028;-77
2022/09/30 07:19:51;;;;;;;3.00;2.70;;;16.90;65.00;;;;;;5094104;28;20107;-76
2022/09/30 07:22:28;;;;;;;4.40;2.97;;;16.90;64.80;;;;;;5095237;28;20108;-78
2022/09/30 07:25:00;;;;;;;4.20;3.08;;;17.00;64.70;;;;;;5095189;28;20099;-77
2022/09/30 07:27:31;;;;;;;7.18;2.85;;;17.00;64.40;;;;;;5094288;28;20031;-78
2022/09/30 07:29:58;;;;;;;3.15;2.80;;;17.00;64.20;;;;;;5094867;28;20500;-76
2022/09/30 07:32:25;;;;;;;6.63;3.13;;;17.10;64.10;;;;;;5094813;28;20024;-78
2022/09/30 07:34:50;;;;;;;4.63;2.35;;;17.10;64.10;;;;;;5093579;28;20016;-76
2022/09/30 07:37:18;;;;;;;3.53;2.60;;;17.10;64.20;;;;;;5093584;28;20108;-77
2022/09/30 07:39:46;;;;;;;4.28;2.42;;;17.20;64.10;;;;;;5094931;28;20470;-78
2022/09/30 07:42:14;;;;;;;13.88;3.28;;;17.20;63.90;;;;;;5094718;28;20024;-78
2022/09/30 07:44:43;;;;;;;3.40;2.75;;;17.30;63.40;;;;;;5094594;28;20027;-78
2022/09/30 07:47:10;;;;;;;2.50;2.10;;;17.30;63.10;;;;;;5094502;28;20501;-78
2022/09/30 07:49:36;;;;;;;3.20;2.28;;;17.30;63.10;;;;;;5094653;28;20063;-78
2022/09/30 07:52:03;;;;;;;5.55;2.45;;;17.40;63.10;;;;;;5093390;28;20412;-78
2022/09/30 07:54:32;;;;;;;3.17;2.70;;;17.40;62.90;;;;;;5094700;28;20052;-76
2022/09/30 07:56:59;;;;;;;4.53;2.65;;;17.40;62.50;;;;;;5095033;28;20017;-77
2022/09/30 07:59:27;;;;;;;3.55;2.65;;;17.50;63.10;;;;;;5094196;28;20119;-75
2022/09/30 08:01:53;;;;;;;3.40;2.28;;;17.50;62.40;;;;;;5075547;28;20482;-78
2022/09/30 08:04:20;;;;;;;3.05;2.45;;;17.50;62.40;;;;;;5074076;28;20390;-75
2022/09/30 08:06:52;;;;;;;3.15;2.28;;;17.60;62.60;;;;;;5074237;28;20474;-78
2022/09/30 08:09:21;;;;;;;3.35;2.90;;;17.60;62.70;;;;;;5074035;28;20477;-78
2022/09/30 08:11:47;;;;;;;6.05;2.42;;;17.60;62.40;;;;;;5073556;28;20020;-77
2022/09/30 08:14:16;;;;;;;3.97;2.58;;;17.70;62.00;;;;;;5092399;28;20103;-77
2022/09/30 08:16:41;;;;;;;4.45;2.80;;;17.70;61.90;;;;;;5094297;28;20465;-76
2022/09/30 08:19:13;;;;;;;3.28;2.72;;;17.70;62.00;;;;;;5093894;28;20059;-76
2022/09/30 08:21:39;;;;;;;6.03;3.17;;;17.80;61.70;;;;;;5092723;28;20397;-76
2022/09/30 08:24:04;;;;;;;4.13;3.30;;;17.80;61.40;;;;;;5093942;28;20024;-78
2022/09/30 08:26:30;;;;;;;4.13;3.00;;;17.80;61.50;;;;;;5093975;28;20053;-78
2022/09/30 08:28:56;;;;;;;3.08;2.78;;;17.80;61.60;;;;;;5091090;28;20025;-75
2022/09/30 08:31:23;;;;;;;3.28;2.47;;;17.80;61.60;;;;;;5092577;28;20024;-76
2022/09/30 08:33:49;;;;;;;7.32;3.03;;;17.80;61.60;;;;;;5094197;28;20030;-77
2022/09/30 08:36:18;;;;;;;5.38;3.13;;;17.90;61.80;;;;;;5096342;28;20024;-78
2022/09/30 08:38:44;;;;;;;3.13;2.50;;;17.90;61.90;;;;;;5093683;28;20477;-77
2022/09/30 08:41:51;;;;;;;3.28;2.67;;;18.00;61.60;;;;;;5092281;28;20380;-77
2022/09/30 08:44:27;;;;;;;4.93;2.80;;;18.10;61.30;;;;;;5093743;28;20016;-78
2022/09/30 08:46:52;;;;;;;4.88;3.20;;;18.10;61.20;;;;;;5093430;28;20040;-77
2022/09/30 08:49:37;;;;;;;3.10;2.80;;;18.10;60.60;;;;;;5108068;28;20486;-78
2022/09/30 08:52:11;;;;;;;3.30;2.58;;;18.10;60.50;;;;;;5109404;28;20093;-78
2022/09/30 08:54:42;;;;;;;7.53;3.03;;;18.20;60.30;;;;;;5099500;28;20056;-76
2022/09/30 08:57:10;;;;;;;5.50;3.42;;;18.10;60.00;;;;;;5094643;28;20036;-77
2022/09/30 08:59:51;;;;;;;8.00;3.08;;;18.10;59.60;;;;;;5091872;28;20020;-76
2022/09/30 09:02:26;;;;;;;4.15;2.70;;;18.00;59.70;;;;;;5099777;28;20032;-75
2022/09/30 09:04:56;;;;;;;4.53;3.28;;;18.00;60.00;;;;;;5089501;28;20026;-75
2022/09/30 09:07:59;;;;;;;5.18;2.80;;;18.00;60.10;;;;;;5101347;28;20027;-78
2022/09/30 09:10:31;;;;;;;8.68;3.50;;;18.00;60.00;;;;;;5072880;28;20028;-76
2022/09/30 09:13:01;;;;;;;4.88;3.17;;;17.90;60.10;;;;;;5088756;28;20374;-78
2022/09/30 09:15:51;;;;;;;4.55;3.20;;;17.90;60.20;;;;;;5092477;28;20020;-78
2022/09/30 09:18:42;;;;;;;6.85;3.20;;;17.90;60.40;;;;;;5077817;28;20077;-77
2022/09/30 09:21:22;;;;;;;5.00;3.50;;;17.90;60.40;;;;;;5075657;28;20401;-76
2022/09/30 09:23:55;;;;;;;3.38;2.60;;;18.00;60.20;;;;;;5090852;28;20028;-76
2022/09/30 09:26:23;;;;;;;3.88;2.90;;;18.00;60.00;;;;;;5092979;28;20024;-78
2022/09/30 09:28:57;;;;;;;5.15;3.53;;;18.10;59.70;;;;;;5092133;28;20385;-78
2022/09/30 09:31:24;;;;;;;4.20;3.00;;;18.10;59.60;;;;;;5074362;28;20044;-77
2022/09/30 09:33:51;;;;;;;4.15;3.38;;;18.10;59.50;;;;;;5093042;28;20024;-79
2022/09/30 09:36:29;;;;;;;4.90;3.50;;;18.20;59.70;;;;;;5100212;28;20020;-77
2022/09/30 09:38:58;;;;;;;7.07;3.60;;;18.30;59.60;;;;;;5103949;28;20016;-78
2022/09/30 09:41:41;;;;;;;4.53;3.60;;;18.40;59.50;;;;;;5107943;28;20081;-77
2022/09/30 09:44:40;;;;;;;6.80;3.72;;;18.40;59.20;;;;;;5090647;28;20385;-79
2022/09/30 09:47:15;;;;;;;6.40;4.25;;;18.50;59.10;;;;;;5080995;28;20051;-75
2022/09/30 09:49:44;;;;;;;7.90;4.28;;;18.50;58.90;;;;;;5093811;28;20031;-79
2022/09/30 09:52:28;;;;;;;8.88;4.07;;;18.50;58.30;;;;;;5090974;28;20032;-77
2022/09/30 09:54:56;;;;;;;6.70;4.22;;;18.50;58.40;;;;;;5088955;28;20529;-76
2022/09/30 09:57:35;;;;;;;5.80;3.75;;;18.50;59.00;;;;;;5105435;28;20035;-77
2022/09/30 10:03:00;;;;;;;6.40;3.60;;;18.60;58.50;;;;;;5093983;28;20030;-78
2022/09/30 10:05:27;;;;;;;7.43;3.88;;;18.60;58.20;;;;;;5105677;28;20032;-78
2022/09/30 10:08:15;;;;;;;9.52;4.72;;;18.60;58.30;;;;;;5104902;28;20385;-76
2022/09/30 10:10:47;;;;;;;5.65;3.25;;;18.60;58.20;;;;;;5087568;28;20576;-77
2022/09/30 10:13:22;;;;;;;3.78;2.50;;;18.70;57.90;;;;;;5099289;28;20034;-77
2022/09/30 10:15:54;;;;;;;3.70;2.25;;;18.60;56.90;;;;;;5098058;28;20017;-77
2022/09/30 10:18:33;;;;;;;3.35;2.45;;;18.70;57.50;;;;;;5092694;28;20097;-78
2022/09/30 10:21:18;;;;;;;9.75;3.90;;;18.80;58.00;;;;;;5102230;28;20506;-76
2022/09/30 10:23:44;;;;;;;5.18;2.90;;;18.80;58.10;;;;;;5090769;28;20493;-75
2022/09/30 10:26:12;;;;;;;4.78;2.55;;;19.00;58.00;;;;;;5093374;28;20035;-77
2022/09/30 10:29:08;;;;;;;3.47;2.03;;;19.00;57.50;;;;;;5108694;28;20023;-79
2022/09/30 10:31:38;;;;;;;4.35;2.55;;;19.20;57.10;;;;;;5093043;28;20028;-79
2022/09/30 10:34:22;;;;;;;3.00;2.40;;;19.30;56.90;;;;;;5103093;28;20023;-77
2022/09/30 10:36:48;;;;;;;3.75;2.30;;;19.50;56.90;;;;;;5111216;27;20019;-77
2022/09/30 10:39:29;;;;;;;3.85;2.25;;;19.70;56.70;;;;;;5093071;28;20027;-75
2022/09/30 10:42:23;;;;;;;5.25;2.63;;;19.90;56.20;;;;;;5108236;28;20139;-75
2022/09/30 10:44:56;;;;;;;3.55;2.25;;;20.10;56.30;;;;;;5074547;28;20052;-76
2022/09/30 10:47:27;;;;;;;7.40;2.40;;;20.40;55.30;;;;;;5092223;28;20094;-77
2022/09/30 10:50:07;;;;;;;3.67;2.10;;;20.60;54.70;;;;;;5103981;28;20089;-75
2022/09/30 10:53:09;;;;;;;4.95;1.80;;;20.80;53.90;;;;;;5101110;28;20488;-78
2022/09/30 10:55:41;;;;;;;3.95;1.88;;;21.00;54.30;;;;;;5045556;28;20048;-77
2022/09/30 10:58:24;;;;;;;2.78;1.80;;;21.20;53.40;;;;;;5052981;28;20505;-75
2022/09/30 11:00:56;;;;;;;7.00;2.53;;;21.40;53.30;;;;;;5036136;28;20057;-77
2022/09/30 11:03:35;;;;;;;3.95;2.00;;;21.50;52.40;;;;;;5039441;28;20029;-76
2022/09/30 11:06:01;;;;;;;4.40;2.03;;;21.60;51.90;;;;;;5038147;28;20037;-77
2022/09/30 11:08:40;;;;;;;4.28;2.10;;;21.60;51.20;;;;;;5047333;28;20562;-76
2022/09/30 11:11:17;;;;;;;4.25;1.85;;;21.70;51.80;;;;;;5052002;28;20029;-75
2022/09/30 11:13:49;;;;;;;3.65;2.55;;;21.70;51.50;;;;;;5052929;28;20029;-75
2022/09/30 11:16:25;;;;;;;3.30;2.15;;;21.80;51.30;;;;;;5052462;28;20533;-78
2022/09/30 11:19:10;;;;;;;5.28;2.05;;;21.90;50.60;;;;;;5052103;28;20151;-76
2022/09/30 11:21:56;;;;;;;4.70;1.98;;;22.00;50.20;;;;;;5052466;28;20423;-77
2022/09/30 11:24:33;;;;;;;3.30;1.70;;;22.20;50.50;;;;;;5052513;28;20051;-76
2022/09/30 11:27:53;;;;;;;3.58;1.83;;;22.40;50.40;;;;;;5052642;28;20049;-76
2022/09/30 11:30:37;;;;;;;3.65;2.30;;;22.50;50.90;;;;;;4973811;28;20062;-76
2022/09/30 11:33:19;;;;;;;3.78;2.30;;;22.70;49.70;;;;;;5006522;28;20200;-76
2022/09/30 11:36:03;;;;;;;5.43;2.72;;;22.80;48.70;;;;;;5012696;28;20413;-78
2022/09/30 11:38:41;;;;;;;4.38;2.40;;;22.90;48.50;;;;;;5012684;28;20042;-78
2022/09/30 11:41:15;;;;;;;5.32;2.70;;;23.00;47.90;;;;;;5012991;28;20057;-77
2022/09/30 11:43:58;;;;;;;5.22;2.88;;;23.00;47.20;;;;;;5012733;28;20142;-76
2022/09/30 11:46:35;;;;;;;3.23;2.37;;;23.10;47.10;;;;;;5012163;28;20045;-77
2022/09/30 11:49:41;;;;;;;5.60;2.70;;;23.10;47.30;;;;;;5012423;28;20038;-77
2022/09/30 11:52:37;;;;;;;2.95;2.00;;;23.10;47.10;;;;;;5012225;28;20088;-77
2022/09/30 11:55:07;;;;;;;5.35;2.55;;;23.10;47.00;;;;;;5012618;28;20026;-74
2022/09/30 11:58:10;;;;;;;4.22;2.00;;;23.10;47.40;;;;;;5012719;28;20037;-76
2022/09/30 12:00:41;;;;;;;2.72;1.67;;;23.10;47.70;;;;;;5011995;28;20522;-75
2022/09/30 12:03:13;;;;;;;3.58;1.55;;;23.10;46.60;;;;;;5007994;28;20040;-75
2022/09/30 12:05:43;;;;;;;5.00;1.80;;;23.10;46.30;;;;;;5094371;28;20030;-77
2022/09/30 12:08:15;;;;;;;3.35;1.85;;;23.10;45.60;;;;;;5109938;28;20024;-75
2022/09/30 12:10:47;;;;;;;2.70;1.50;;;23.00;45.00;;;;;;5109680;28;20042;-76
2022/09/30 12:13:37;;;;;;;4.80;2.22;;;22.80;45.20;;;;;;5094230;28;20492;-74
2022/09/30 12:16:09;;;;;;;3.33;1.60;;;22.70;46.40;;;;;;5094255;28;20020;-75
2022/09/30 12:18:41;;;;;;;2.10;1.48;;;22.60;46.70;;;;;;5093973;28;20028;-76
2022/09/30 12:21:38;;;;;;;3.58;1.42;;;22.50;45.90;;;;;;5093844;28;20024;-76
2022/09/30 12:24:15;;;;;;;2.90;1.42;;;22.40;46.60;;;;;;5092434;28;20028;-77
2022/09/30 12:26:41;;;;;;;2.78;1.60;;;22.30;46.40;;;;;;5093717;28;20355;-78
2022/09/30 12:32:20;;;;;;;3.00;1.45;;;22.30;46.30;;;;;;5093757;28;20161;-76
2022/09/30 12:35:20;;;;;;;2.13;1.35;;;22.20;46.60;;;;;;5092079;28;20040;-78
2022/09/30 12:37:58;;;;;;;5.75;1.20;;;22.10;46.70;;;;;;5093799;28;20022;-79
2022/09/30 12:41:01;;;;;;;1.77;1.10;;;22.10;47.20;;;;;;5093579;28;20027;-78
2022/09/30 12:43:53;;;;;;;2.05;1.40;;;22.00;47.70;;;;;;5093585;28;20024;-78
2022/09/30 12:46:34;;;;;;;1.48;1.13;;;22.00;48.20;;;;;;5093286;28;20079;-79
2022/09/30 12:49:05;;;;;;;2.85;1.48;;;22.00;47.90;;;;;;5093354;28;20110;-78
2022/09/30 12:51:39;;;;;;;3.17;1.63;;;22.00;47.60;;;;;;5093136;28;20385;-78
2022/09/30 12:54:10;;;;;;;2.97;1.48;;;22.00;47.70;;;;;;5094249;28;20016;-76
2022/09/30 12:56:43;;;;;;;4.13;1.40;;;22.00;48.30;;;;;;5093514;28;20025;-76
2022/09/30 12:59:12;;;;;;;2.45;1.40;;;22.00;48.30;;;;;;5093426;28;20078;-76
2022/09/30 13:01:40;;;;;;;3.70;1.58;;;22.00;48.00;;;;;;5093425;28;20028;-76
2022/09/30 13:04:07;;;;;;;1.58;1.10;;;22.10;48.10;;;;;;5093378;28;20381;-76
2022/09/30 13:06:45;;;;;;;3.08;1.40;;;22.20;48.10;;;;;;5093242;28;20055;-75
2022/09/30 13:09:11;;;;;;;1.20;1.10;;;22.20;47.70;;;;;;5093117;28;20048;-77
2022/09/30 13:11:39;;;;;;;1.70;1.30;;;22.20;47.40;;;;;;5093205;28;20055;-79
2022/09/30 13:14:34;;;;;;;2.65;1.48;;;22.30;47.20;;;;;;5092061;28;20024;-78
2022/09/30 13:17:25;;;;;;;3.22;1.42;;;22.30;46.70;;;;;;5093178;28;20099;-79
2022/09/30 13:19:53;;;;;;;1.50;1.00;;;22.20;46.70;;;;;;5084686;28;20036;-76
2022/09/30 13:22:19;;;;;;;1.38;0.90;;;22.30;47.30;;;;;;5091548;28;20028;-79